Terminal Aerodrome Forecast
Issued by NWS Wilmington, OH

Current Version | Previous Version | Text Only | Print | Product List | Glossary Off
Versions: 1 2 3 4 5 6 7 8 9 10 11 12 13 14 15 16 17 18 19 20 21 22 23 24

000
FTUS41 KILN 181500 AAA
TAFILN
TAF AMD
KILN 181507Z 1815/1912 31012G20KT P6SM VCSH OVC035
     FM181800 31012G20KT P6SM VCSH OVC025
     FM182300 32010G18KT P6SM OVC015
     FM190300 31008KT P6SM BKN015
     FM191000 30004KT P6SM SCT025=

USA.gov is the U.S. government's official web portal to all federal, state and local government web resources and services.